sensor_id;sensor_type;location;lat;lon;timestamp;P1;durP1;ratioP1;P2;durP2;ratioP2
13698;SDS011;6921;53.642;9.956;2022-08-01T00:00:22;29.42;;;20.50;;
13698;SDS011;6921;53.642;9.956;2022-08-01T00:02:29;25.40;;;18.10;;
13698;SDS011;6921;53.642;9.956;2022-08-01T00:04:35;23.45;;;18.42;;
13698;SDS011;6921;53.642;9.956;2022-08-01T00:06:38;21.98;;;17.67;;
13698;SDS011;6921;53.642;9.956;2022-08-01T00:08:42;24.35;;;18.70;;
13698;SDS011;6921;53.642;9.956;2022-08-01T00:10:45;23.30;;;16.55;;
13698;SDS011;6921;53.642;9.956;2022-08-01T00:12:48;24.33;;;17.00;;
13698;SDS011;6921;53.642;9.956;2022-08-01T00:14:51;22.42;;;16.80;;
13698;SDS011;6921;53.642;9.956;2022-08-01T00:16:55;20.40;;;15.68;;
13698;SDS011;6921;53.642;9.956;2022-08-01T00:18:58;23.45;;;16.50;;
13698;SDS011;6921;53.642;9.956;2022-08-01T00:21:03;25.55;;;17.70;;
13698;SDS011;6921;53.642;9.956;2022-08-01T00:23:06;21.83;;;15.65;;
13698;SDS011;6921;53.642;9.956;2022-08-01T00:25:09;22.70;;;17.45;;
13698;SDS011;6921;53.642;9.956;2022-08-01T00:27:13;23.02;;;16.40;;
13698;SDS011;6921;53.642;9.956;2022-08-01T00:29:19;21.42;;;17.15;;
13698;SDS011;6921;53.642;9.956;2022-08-01T00:31:42;23.33;;;16.98;;
13698;SDS011;6921;53.642;9.956;2022-08-01T00:33:46;22.00;;;16.30;;
13698;SDS011;6921;53.642;9.956;2022-08-01T00:35:49;23.23;;;17.15;;
13698;SDS011;6921;53.642;9.956;2022-08-01T00:37:53;25.80;;;17.50;;
13698;SDS011;6921;53.642;9.956;2022-08-01T00:39:57;25.73;;;16.77;;
13698;SDS011;6921;53.642;9.956;2022-08-01T00:42:05;24.38;;;16.95;;
13698;SDS011;6921;53.642;9.956;2022-08-01T00:44:08;22.17;;;15.93;;
13698;SDS011;6921;53.642;9.956;2022-08-01T00:46:11;24.40;;;16.75;;
13698;SDS011;6921;53.642;9.956;2022-08-01T00:48:15;26.98;;;16.52;;
13698;SDS011;6921;53.642;9.956;2022-08-01T00:50:18;19.83;;;15.50;;
13698;SDS011;6921;53.642;9.956;2022-08-01T00:52:21;23.83;;;15.38;;
13698;SDS011;6921;53.642;9.956;2022-08-01T00:54:29;23.30;;;15.43;;
13698;SDS011;6921;53.642;9.956;2022-08-01T00:56:33;25.33;;;15.57;;
13698;SDS011;6921;53.642;9.956;2022-08-01T00:58:36;21.75;;;15.00;;
13698;SDS011;6921;53.642;9.956;2022-08-01T01:00:40;22.98;;;15.90;;
13698;SDS011;6921;53.642;9.956;2022-08-01T01:02:53;25.00;;;15.85;;
13698;SDS011;6921;53.642;9.956;2022-08-01T01:04:56;22.83;;;15.65;;
13698;SDS011;6921;53.642;9.956;2022-08-01T01:07:07;25.73;;;16.10;;
13698;SDS011;6921;53.642;9.956;2022-08-01T01:09:18;20.55;;;15.00;;
13698;SDS011;6921;53.642;9.956;2022-08-01T01:11:28;23.95;;;14.93;;
13698;SDS011;6921;53.642;9.956;2022-08-01T01:13:34;23.65;;;15.27;;
13698;SDS011;6921;53.642;9.956;2022-08-01T01:15:50;24.38;;;15.60;;
13698;SDS011;6921;53.642;9.956;2022-08-01T01:17:55;24.50;;;15.38;;
13698;SDS011;6921;53.642;9.956;2022-08-01T01:19:59;23.85;;;15.55;;
13698;SDS011;6921;53.642;9.956;2022-08-01T01:22:24;23.88;;;15.05;;
13698;SDS011;6921;53.642;9.956;2022-08-01T01:24:33;23.25;;;15.70;;
13698;SDS011;6921;53.642;9.956;2022-08-01T01:26:40;27.10;;;15.95;;
13698;SDS011;6921;53.642;9.956;2022-08-01T01:31:09;22.55;;;15.15;;
13698;SDS011;6921;53.642;9.956;2022-08-01T01:33:13;23.55;;;15.60;;
13698;SDS011;6921;53.642;9.956;2022-08-01T01:35:19;23.92;;;15.45;;
13698;SDS011;6921;53.642;9.956;2022-08-01T01:37:23;22.85;;;15.30;;
13698;SDS011;6921;53.642;9.956;2022-08-01T01:39:28;25.92;;;16.20;;
13698;SDS011;6921;53.642;9.956;2022-08-01T01:41:32;23.10;;;15.65;;
13698;SDS011;6921;53.642;9.956;2022-08-01T01:43:36;22.45;;;14.57;;
13698;SDS011;6921;53.642;9.956;2022-08-01T01:45:42;27.50;;;15.60;;
13698;SDS011;6921;53.642;9.956;2022-08-01T01:47:48;24.10;;;16.02;;
13698;SDS011;6921;53.642;9.956;2022-08-01T01:49:52;23.45;;;15.52;;
13698;SDS011;6921;53.642;9.956;2022-08-01T01:51:57;22.65;;;15.48;;
13698;SDS011;6921;53.642;9.956;2022-08-01T01:54:03;24.55;;;15.32;;
13698;SDS011;6921;53.642;9.956;2022-08-01T01:56:07;22.85;;;14.63;;
13698;SDS011;6921;53.642;9.956;2022-08-01T01:58:12;23.30;;;15.23;;
13698;SDS011;6921;53.642;9.956;2022-08-01T02:00:16;21.90;;;15.05;;
13698;SDS011;6921;53.642;9.956;2022-08-01T02:02:19;22.77;;;15.15;;
13698;SDS011;6921;53.642;9.956;2022-08-01T02:04:26;27.23;;;15.88;;
13698;SDS011;6921;53.642;9.956;2022-08-01T02:06:31;23.45;;;14.98;;
13698;SDS011;6921;53.642;9.956;2022-08-01T02:08:37;20.92;;;14.52;;
13698;SDS011;6921;53.642;9.956;2022-08-01T02:10:42;25.73;;;14.20;;
13698;SDS011;6921;53.642;9.956;2022-08-01T02:13:07;22.40;;;15.18;;
13698;SDS011;6921;53.642;9.956;2022-08-01T02:15:12;22.80;;;14.43;;
13698;SDS011;6921;53.642;9.956;2022-08-01T02:17:17;21.65;;;14.32;;
13698;SDS011;6921;53.642;9.956;2022-08-01T02:19:21;22.48;;;13.57;;
13698;SDS011;6921;53.642;9.956;2022-08-01T02:21:26;22.08;;;14.02;;
13698;SDS011;6921;53.642;9.956;2022-08-01T02:23:31;18.38;;;13.52;;
13698;SDS011;6921;53.642;9.956;2022-08-01T02:25:36;19.75;;;13.80;;
13698;SDS011;6921;53.642;9.956;2022-08-01T02:28:03;18.35;;;13.23;;
13698;SDS011;6921;53.642;9.956;2022-08-01T02:30:08;16.98;;;12.68;;
13698;SDS011;6921;53.642;9.956;2022-08-01T02:32:14;18.52;;;13.27;;
13698;SDS011;6921;53.642;9.956;2022-08-01T02:34:20;21.75;;;13.65;;
13698;SDS011;6921;53.642;9.956;2022-08-01T02:36:26;22.08;;;13.52;;
13698;SDS011;6921;53.642;9.956;2022-08-01T02:38:35;19.38;;;13.02;;
13698;SDS011;6921;53.642;9.956;2022-08-01T02:40:39;16.77;;;13.95;;
13698;SDS011;6921;53.642;9.956;2022-08-01T02:42:45;19.35;;;13.52;;
13698;SDS011;6921;53.642;9.956;2022-08-01T02:44:49;18.35;;;12.68;;
13698;SDS011;6921;53.642;9.956;2022-08-01T02:46:56;17.63;;;13.63;;
13698;SDS011;6921;53.642;9.956;2022-08-01T02:49:03;17.33;;;13.15;;
13698;SDS011;6921;53.642;9.956;2022-08-01T02:51:08;18.00;;;13.82;;
13698;SDS011;6921;53.642;9.956;2022-08-01T02:53:14;21.40;;;13.95;;
13698;SDS011;6921;53.642;9.956;2022-08-01T02:55:19;20.42;;;13.10;;
13698;SDS011;6921;53.642;9.956;2022-08-01T02:57:25;17.95;;;12.60;;
13698;SDS011;6921;53.642;9.956;2022-08-01T02:59:29;18.23;;;13.18;;
13698;SDS011;6921;53.642;9.956;2022-08-01T03:01:32;17.80;;;12.73;;
13698;SDS011;6921;53.642;9.956;2022-08-01T03:03:37;18.35;;;12.75;;
13698;SDS011;6921;53.642;9.956;2022-08-01T03:05:41;15.93;;;12.73;;
13698;SDS011;6921;53.642;9.956;2022-08-01T03:07:44;20.05;;;14.10;;
13698;SDS011;6921;53.642;9.956;2022-08-01T03:09:50;16.65;;;12.60;;
13698;SDS011;6921;53.642;9.956;2022-08-01T03:11:54;14.95;;;12.63;;
13698;SDS011;6921;53.642;9.956;2022-08-01T03:14:00;16.20;;;12.30;;
13698;SDS011;6921;53.642;9.956;2022-08-01T03:16:05;21.10;;;13.40;;
13698;SDS011;6921;53.642;9.956;2022-08-01T03:18:10;15.65;;;12.63;;
13698;SDS011;6921;53.642;9.956;2022-08-01T03:20:14;16.80;;;11.85;;
13698;SDS011;6921;53.642;9.956;2022-08-01T03:22:18;19.30;;;12.10;;
13698;SDS011;6921;53.642;9.956;2022-08-01T03:24:23;17.00;;;11.90;;
13698;SDS011;6921;53.642;9.956;2022-08-01T03:26:29;14.38;;;12.77;;
13698;SDS011;6921;53.642;9.956;2022-08-01T03:28:33;14.40;;;11.73;;
13698;SDS011;6921;53.642;9.956;2022-08-01T03:30:38;13.02;;;11.10;;
13698;SDS011;6921;53.642;9.956;2022-08-01T03:32:42;17.70;;;11.63;;
13698;SDS011;6921;53.642;9.956;2022-08-01T03:34:47;12.52;;;10.40;;
13698;SDS011;6921;53.642;9.956;2022-08-01T03:36:52;12.27;;;10.57;;
13698;SDS011;6921;53.642;9.956;2022-08-01T03:38:57;12.25;;;9.63;;
13698;SDS011;6921;53.642;9.956;2022-08-01T03:41:02;12.30;;;9.40;;
13698;SDS011;6921;53.642;9.956;2022-08-01T03:43:11;11.60;;;9.15;;
13698;SDS011;6921;53.642;9.956;2022-08-01T03:45:15;13.48;;;9.32;;
13698;SDS011;6921;53.642;9.956;2022-08-01T03:47:24;12.68;;;9.40;;
13698;SDS011;6921;53.642;9.956;2022-08-01T03:49:29;11.43;;;9.07;;
13698;SDS011;6921;53.642;9.956;2022-08-01T03:51:33;9.90;;;8.73;;
13698;SDS011;6921;53.642;9.956;2022-08-01T03:53:36;8.77;;;7.70;;
13698;SDS011;6921;53.642;9.956;2022-08-01T03:55:42;9.73;;;8.05;;
13698;SDS011;6921;53.642;9.956;2022-08-01T03:57:48;9.20;;;8.27;;
13698;SDS011;6921;53.642;9.956;2022-08-01T03:59:53;9.50;;;7.95;;
13698;SDS011;6921;53.642;9.956;2022-08-01T04:01:56;10.30;;;8.05;;
13698;SDS011;6921;53.642;9.956;2022-08-01T04:04:00;9.80;;;7.38;;
13698;SDS011;6921;53.642;9.956;2022-08-01T04:06:06;9.55;;;7.60;;
13698;SDS011;6921;53.642;9.956;2022-08-01T04:08:11;8.82;;;6.85;;
13698;SDS011;6921;53.642;9.956;2022-08-01T04:10:14;12.82;;;7.60;;
13698;SDS011;6921;53.642;9.956;2022-08-01T04:12:18;10.30;;;7.00;;
13698;SDS011;6921;53.642;9.956;2022-08-01T04:14:21;8.75;;;6.45;;
13698;SDS011;6921;53.642;9.956;2022-08-01T04:16:26;8.75;;;7.28;;
13698;SDS011;6921;53.642;9.956;2022-08-01T04:18:29;11.68;;;6.60;;
13698;SDS011;6921;53.642;9.956;2022-08-01T04:20:33;9.05;;;6.28;;
13698;SDS011;6921;53.642;9.956;2022-08-01T04:22:36;9.43;;;6.75;;
13698;SDS011;6921;53.642;9.956;2022-08-01T04:24:40;7.32;;;6.63;;
13698;SDS011;6921;53.642;9.956;2022-08-01T04:26:44;6.93;;;6.22;;
13698;SDS011;6921;53.642;9.956;2022-08-01T04:28:48;9.43;;;6.43;;
13698;SDS011;6921;53.642;9.956;2022-08-01T04:30:54;10.00;;;6.60;;
13698;SDS011;6921;53.642;9.956;2022-08-01T04:33:04;9.30;;;6.40;;
13698;SDS011;6921;53.642;9.956;2022-08-01T04:35:08;7.72;;;6.40;;
13698;SDS011;6921;53.642;9.956;2022-08-01T04:37:24;7.40;;;6.60;;
13698;SDS011;6921;53.642;9.956;2022-08-01T04:39:28;9.68;;;6.35;;
13698;SDS011;6921;53.642;9.956;2022-08-01T04:41:33;10.40;;;6.72;;
13698;SDS011;6921;53.642;9.956;2022-08-01T04:43:37;10.85;;;6.65;;
13698;SDS011;6921;53.642;9.956;2022-08-01T04:45:40;7.88;;;5.32;;
13698;SDS011;6921;53.642;9.956;2022-08-01T04:47:45;8.65;;;6.07;;
13698;SDS011;6921;53.642;9.956;2022-08-01T04:49:50;8.32;;;5.32;;
13698;SDS011;6921;53.642;9.956;2022-08-01T04:51:54;6.28;;;5.35;;
13698;SDS011;6921;53.642;9.956;2022-08-01T04:53:58;7.43;;;4.93;;
13698;SDS011;6921;53.642;9.956;2022-08-01T04:56:02;5.07;;;4.55;;
13698;SDS011;6921;53.642;9.956;2022-08-01T04:58:05;6.22;;;5.13;;
13698;SDS011;6921;53.642;9.956;2022-08-01T05:00:09;4.15;;;3.75;;
13698;SDS011;6921;53.642;9.956;2022-08-01T05:02:13;4.60;;;3.60;;
13698;SDS011;6921;53.642;9.956;2022-08-01T05:04:17;3.40;;;3.10;;
13698;SDS011;6921;53.642;9.956;2022-08-01T05:06:21;3.55;;;3.05;;
13698;SDS011;6921;53.642;9.956;2022-08-01T05:08:25;4.60;;;3.10;;
13698;SDS011;6921;53.642;9.956;2022-08-01T05:10:28;3.78;;;2.88;;
13698;SDS011;6921;53.642;9.956;2022-08-01T05:12:32;4.65;;;2.83;;
13698;SDS011;6921;53.642;9.956;2022-08-01T05:14:35;3.45;;;2.88;;
13698;SDS011;6921;53.642;9.956;2022-08-01T05:16:38;3.55;;;3.25;;
13698;SDS011;6921;53.642;9.956;2022-08-01T05:18:42;3.95;;;3.40;;
13698;SDS011;6921;53.642;9.956;2022-08-01T05:20:46;4.35;;;3.33;;
13698;SDS011;6921;53.642;9.956;2022-08-01T05:22:51;4.05;;;3.40;;
13698;SDS011;6921;53.642;9.956;2022-08-01T05:24:54;5.30;;;3.72;;
13698;SDS011;6921;53.642;9.956;2022-08-01T05:26:58;4.82;;;3.20;;
13698;SDS011;6921;53.642;9.956;2022-08-01T05:29:02;4.82;;;4.07;;
13698;SDS011;6921;53.642;9.956;2022-08-01T05:31:05;4.15;;;3.75;;
13698;SDS011;6921;53.642;9.956;2022-08-01T05:33:08;5.20;;;4.05;;
13698;SDS011;6921;53.642;9.956;2022-08-01T05:35:12;4.47;;;4.07;;
13698;SDS011;6921;53.642;9.956;2022-08-01T05:37:15;5.97;;;4.22;;
13698;SDS011;6921;53.642;9.956;2022-08-01T05:39:20;4.85;;;3.75;;
13698;SDS011;6921;53.642;9.956;2022-08-01T05:41:25;5.82;;;4.00;;
13698;SDS011;6921;53.642;9.956;2022-08-01T05:43:29;4.93;;;3.70;;
13698;SDS011;6921;53.642;9.956;2022-08-01T05:45:32;6.90;;;4.38;;
13698;SDS011;6921;53.642;9.956;2022-08-01T05:47:35;4.85;;;4.00;;
13698;SDS011;6921;53.642;9.956;2022-08-01T05:49:43;6.13;;;4.10;;
13698;SDS011;6921;53.642;9.956;2022-08-01T05:51:47;7.78;;;4.07;;
13698;SDS011;6921;53.642;9.956;2022-08-01T05:53:50;5.28;;;3.92;;
13698;SDS011;6921;53.642;9.956;2022-08-01T05:55:55;5.00;;;4.22;;
13698;SDS011;6921;53.642;9.956;2022-08-01T05:57:58;7.82;;;4.93;;
13698;SDS011;6921;53.642;9.956;2022-08-01T06:00:01;10.80;;;4.88;;
13698;SDS011;6921;53.642;9.956;2022-08-01T06:02:05;8.55;;;4.65;;
13698;SDS011;6921;53.642;9.956;2022-08-01T06:04:08;9.88;;;5.00;;
13698;SDS011;6921;53.642;9.956;2022-08-01T06:06:12;8.30;;;4.40;;
13698;SDS011;6921;53.642;9.956;2022-08-01T06:08:16;5.07;;;4.43;;
13698;SDS011;6921;53.642;9.956;2022-08-01T06:10:19;5.35;;;4.28;;
13698;SDS011;6921;53.642;9.956;2022-08-01T06:12:24;5.93;;;3.88;;
13698;SDS011;6921;53.642;9.956;2022-08-01T06:14:27;10.00;;;3.80;;
13698;SDS011;6921;53.642;9.956;2022-08-01T06:16:30;5.30;;;4.10;;
13698;SDS011;6921;53.642;9.956;2022-08-01T06:18:33;5.38;;;3.60;;
13698;SDS011;6921;53.642;9.956;2022-08-01T06:20:37;7.68;;;3.88;;
13698;SDS011;6921;53.642;9.956;2022-08-01T06:22:40;10.27;;;4.53;;
13698;SDS011;6921;53.642;9.956;2022-08-01T06:24:44;7.35;;;4.25;;
13698;SDS011;6921;53.642;9.956;2022-08-01T06:26:47;10.30;;;4.65;;
13698;SDS011;6921;53.642;9.956;2022-08-01T06:28:52;11.27;;;5.68;;
13698;SDS011;6921;53.642;9.956;2022-08-01T06:30:55;10.18;;;5.95;;
13698;SDS011;6921;53.642;9.956;2022-08-01T06:33:00;11.35;;;6.60;;
13698;SDS011;6921;53.642;9.956;2022-08-01T06:35:04;15.02;;;7.57;;
13698;SDS011;6921;53.642;9.956;2022-08-01T06:37:07;16.17;;;8.05;;
13698;SDS011;6921;53.642;9.956;2022-08-01T06:39:11;12.25;;;8.07;;
13698;SDS011;6921;53.642;9.956;2022-08-01T06:41:14;13.48;;;8.77;;
13698;SDS011;6921;53.642;9.956;2022-08-01T06:43:17;13.38;;;8.57;;
13698;SDS011;6921;53.642;9.956;2022-08-01T06:45:22;12.10;;;9.82;;
13698;SDS011;6921;53.642;9.956;2022-08-01T06:47:28;11.15;;;9.90;;
13698;SDS011;6921;53.642;9.956;2022-08-01T06:49:31;13.60;;;9.30;;
13698;SDS011;6921;53.642;9.956;2022-08-01T06:51:35;14.00;;;10.27;;
13698;SDS011;6921;53.642;9.956;2022-08-01T06:53:38;15.45;;;10.30;;
13698;SDS011;6921;53.642;9.956;2022-08-01T06:55:41;11.48;;;9.90;;
13698;SDS011;6921;53.642;9.956;2022-08-01T06:57:45;13.82;;;10.18;;
13698;SDS011;6921;53.642;9.956;2022-08-01T06:59:49;13.30;;;9.95;;
13698;SDS011;6921;53.642;9.956;2022-08-01T07:01:56;13.23;;;9.80;;
13698;SDS011;6921;53.642;9.956;2022-08-01T07:04:00;15.80;;;10.18;;
13698;SDS011;6921;53.642;9.956;2022-08-01T07:06:03;13.77;;;10.07;;
13698;SDS011;6921;53.642;9.956;2022-08-01T07:08:07;16.80;;;9.43;;
13698;SDS011;6921;53.642;9.956;2022-08-01T07:10:10;12.02;;;8.70;;
13698;SDS011;6921;53.642;9.956;2022-08-01T07:12:13;11.70;;;7.95;;
13698;SDS011;6921;53.642;9.956;2022-08-01T07:14:17;11.73;;;7.90;;
13698;SDS011;6921;53.642;9.956;2022-08-01T07:16:20;11.40;;;7.32;;
13698;SDS011;6921;53.642;9.956;2022-08-01T07:18:25;11.25;;;7.18;;
13698;SDS011;6921;53.642;9.956;2022-08-01T07:20:28;9.63;;;7.03;;
13698;SDS011;6921;53.642;9.956;2022-08-01T07:22:36;12.88;;;7.82;;
13698;SDS011;6921;53.642;9.956;2022-08-01T07:24:39;12.68;;;7.85;;
13698;SDS011;6921;53.642;9.956;2022-08-01T07:26:46;13.73;;;8.90;;
13698;SDS011;6921;53.642;9.956;2022-08-01T07:28:54;10.70;;;8.15;;
13698;SDS011;6921;53.642;9.956;2022-08-01T07:30:57;14.80;;;8.90;;
13698;SDS011;6921;53.642;9.956;2022-08-01T07:33:00;15.25;;;9.27;;
13698;SDS011;6921;53.642;9.956;2022-08-01T07:35:06;13.30;;;8.35;;
13698;SDS011;6921;53.642;9.956;2022-08-01T07:37:09;12.98;;;8.57;;
13698;SDS011;6921;53.642;9.956;2022-08-01T07:39:12;18.20;;;9.07;;
13698;SDS011;6921;53.642;9.956;2022-08-01T07:41:16;14.23;;;8.55;;
13698;SDS011;6921;53.642;9.956;2022-08-01T07:43:19;13.27;;;7.78;;
13698;SDS011;6921;53.642;9.956;2022-08-01T07:45:22;12.05;;;6.57;;
13698;SDS011;6921;53.642;9.956;2022-08-01T07:47:28;9.23;;;6.25;;
13698;SDS011;6921;53.642;9.956;2022-08-01T07:49:31;10.52;;;5.30;;
13698;SDS011;6921;53.642;9.956;2022-08-01T07:51:41;8.50;;;4.50;;
13698;SDS011;6921;53.642;9.956;2022-08-01T07:54:03;11.82;;;4.40;;
13698;SDS011;6921;53.642;9.956;2022-08-01T07:56:06;10.57;;;4.10;;
13698;SDS011;6921;53.642;9.956;2022-08-01T07:58:09;10.02;;;4.07;;
13698;SDS011;6921;53.642;9.956;2022-08-01T08:00:12;10.65;;;4.28;;
13698;SDS011;6921;53.642;9.956;2022-08-01T08:02:16;10.40;;;3.83;;
13698;SDS011;6921;53.642;9.956;2022-08-01T08:04:19;12.93;;;3.35;;
13698;SDS011;6921;53.642;9.956;2022-08-01T08:06:23;7.20;;;3.28;;
13698;SDS011;6921;53.642;9.956;2022-08-01T08:08:28;7.18;;;2.90;;
13698;SDS011;6921;53.642;9.956;2022-08-01T08:10:32;7.65;;;3.35;;
13698;SDS011;6921;53.642;9.956;2022-08-01T08:12:35;5.63;;;3.45;;
13698;SDS011;6921;53.642;9.956;2022-08-01T08:14:38;5.80;;;3.13;;
13698;SDS011;6921;53.642;9.956;2022-08-01T08:16:41;9.88;;;3.65;;
13698;SDS011;6921;53.642;9.956;2022-08-01T08:18:45;6.35;;;3.22;;
13698;SDS011;6921;53.642;9.956;2022-08-01T08:20:48;8.38;;;3.47;;
13698;SDS011;6921;53.642;9.956;2022-08-01T08:22:51;6.50;;;3.50;;
13698;SDS011;6921;53.642;9.956;2022-08-01T08:24:56;7.97;;;3.92;;
13698;SDS011;6921;53.642;9.956;2022-08-01T08:27:00;6.75;;;3.15;;
13698;SDS011;6921;53.642;9.956;2022-08-01T08:29:05;7.13;;;3.75;;
13698;SDS011;6921;53.642;9.956;2022-08-01T08:31:08;6.72;;;3.55;;
13698;SDS011;6921;53.642;9.956;2022-08-01T08:33:29;7.07;;;3.38;;
13698;SDS011;6921;53.642;9.956;2022-08-01T08:35:32;6.97;;;3.15;;
13698;SDS011;6921;53.642;9.956;2022-08-01T08:37:43;5.57;;;2.80;;
13698;SDS011;6921;53.642;9.956;2022-08-01T08:39:48;3.50;;;2.78;;
13698;SDS011;6921;53.642;9.956;2022-08-01T08:41:52;5.68;;;3.22;;
13698;SDS011;6921;53.642;9.956;2022-08-01T08:43:56;5.70;;;2.85;;
13698;SDS011;6921;53.642;9.956;2022-08-01T08:46:00;5.65;;;3.20;;
13698;SDS011;6921;53.642;9.956;2022-08-01T08:48:04;7.25;;;3.13;;
13698;SDS011;6921;53.642;9.956;2022-08-01T08:50:08;7.72;;;2.97;;
13698;SDS011;6921;53.642;9.956;2022-08-01T08:52:12;6.75;;;2.95;;
13698;SDS011;6921;53.642;9.956;2022-08-01T08:54:16;6.75;;;3.30;;
13698;SDS011;6921;53.642;9.956;2022-08-01T08:56:21;6.50;;;2.70;;
13698;SDS011;6921;53.642;9.956;2022-08-01T08:58:27;5.57;;;2.67;;
13698;SDS011;6921;53.642;9.956;2022-08-01T09:00:32;12.00;;;3.15;;
13698;SDS011;6921;53.642;9.956;2022-08-01T09:02:39;6.85;;;2.78;;
13698;SDS011;6921;53.642;9.956;2022-08-01T09:04:43;6.15;;;2.85;;
13698;SDS011;6921;53.642;9.956;2022-08-01T09:06:46;6.20;;;2.33;;
13698;SDS011;6921;53.642;9.956;2022-08-01T09:08:49;5.57;;;2.40;;
13698;SDS011;6921;53.642;9.956;2022-08-01T09:10:53;9.07;;;2.45;;
13698;SDS011;6921;53.642;9.956;2022-08-01T09:13:03;7.82;;;2.45;;
13698;SDS011;6921;53.642;9.956;2022-08-01T09:15:08;7.28;;;2.80;;
13698;SDS011;6921;53.642;9.956;2022-08-01T09:17:12;8.95;;;2.35;;
13698;SDS011;6921;53.642;9.956;2022-08-01T09:19:16;8.13;;;2.40;;
13698;SDS011;6921;53.642;9.956;2022-08-01T09:21:20;5.82;;;2.55;;
13698;SDS011;6921;53.642;9.956;2022-08-01T09:23:31;7.07;;;2.47;;
13698;SDS011;6921;53.642;9.956;2022-08-01T09:25:49;6.20;;;2.40;;
13698;SDS011;6921;53.642;9.956;2022-08-01T09:28:01;6.28;;;2.10;;
13698;SDS011;6921;53.642;9.956;2022-08-01T09:30:10;8.38;;;2.03;;
13698;SDS011;6921;53.642;9.956;2022-08-01T09:32:14;7.45;;;2.50;;
13698;SDS011;6921;53.642;9.956;2022-08-01T09:34:23;7.32;;;2.40;;
13698;SDS011;6921;53.642;9.956;2022-08-01T09:36:42;6.38;;;2.42;;
13698;SDS011;6921;53.642;9.956;2022-08-01T09:38:47;7.95;;;2.35;;
13698;SDS011;6921;53.642;9.956;2022-08-01T09:40:51;7.47;;;2.05;;
13698;SDS011;6921;53.642;9.956;2022-08-01T09:42:58;6.30;;;1.98;;
13698;SDS011;6921;53.642;9.956;2022-08-01T09:47:42;9.55;;;2.63;;
13698;SDS011;6921;53.642;9.956;2022-08-01T09:49:52;7.10;;;2.50;;
13698;SDS011;6921;53.642;9.956;2022-08-01T09:51:57;8.02;;;2.38;;
13698;SDS011;6921;53.642;9.956;2022-08-01T09:54:01;7.82;;;2.40;;
13698;SDS011;6921;53.642;9.956;2022-08-01T09:56:09;6.45;;;2.22;;
13698;SDS011;6921;53.642;9.956;2022-08-01T09:58:12;6.07;;;2.30;;
13698;SDS011;6921;53.642;9.956;2022-08-01T10:00:17;8.40;;;2.13;;
13698;SDS011;6921;53.642;9.956;2022-08-01T10:02:41;6.38;;;2.50;;
13698;SDS011;6921;53.642;9.956;2022-08-01T10:04:49;10.65;;;2.75;;
13698;SDS011;6921;53.642;9.956;2022-08-01T10:07:03;8.07;;;2.60;;
13698;SDS011;6921;53.642;9.956;2022-08-01T10:09:06;5.90;;;2.33;;
13698;SDS011;6921;53.642;9.956;2022-08-01T10:11:11;4.85;;;2.50;;
13698;SDS011;6921;53.642;9.956;2022-08-01T10:13:16;6.88;;;2.85;;
13698;SDS011;6921;53.642;9.956;2022-08-01T10:15:20;9.23;;;2.38;;
13698;SDS011;6921;53.642;9.956;2022-08-01T10:17:24;7.63;;;2.88;;
13698;SDS011;6921;53.642;9.956;2022-08-01T10:19:50;6.35;;;2.80;;
13698;SDS011;6921;53.642;9.956;2022-08-01T10:21:56;6.05;;;3.28;;
13698;SDS011;6921;53.642;9.956;2022-08-01T10:24:01;6.10;;;3.00;;
13698;SDS011;6921;53.642;9.956;2022-08-01T10:26:05;7.47;;;2.88;;
13698;SDS011;6921;53.642;9.956;2022-08-01T10:28:12;4.45;;;2.60;;
13698;SDS011;6921;53.642;9.956;2022-08-01T10:30:18;7.47;;;2.50;;
13698;SDS011;6921;53.642;9.956;2022-08-01T10:32:24;5.95;;;2.33;;
13698;SDS011;6921;53.642;9.956;2022-08-01T10:34:29;6.57;;;2.47;;
13698;SDS011;6921;53.642;9.956;2022-08-01T10:36:34;4.82;;;2.05;;
13698;SDS011;6921;53.642;9.956;2022-08-01T10:38:41;8.40;;;2.97;;
13698;SDS011;6921;53.642;9.956;2022-08-01T10:40:44;4.30;;;2.45;;
13698;SDS011;6921;53.642;9.956;2022-08-01T10:42:47;8.65;;;3.00;;
13698;SDS011;6921;53.642;9.956;2022-08-01T10:44:51;6.28;;;2.30;;
13698;SDS011;6921;53.642;9.956;2022-08-01T10:46:59;7.32;;;2.30;;
13698;SDS011;6921;53.642;9.956;2022-08-01T10:49:06;7.10;;;2.40;;
13698;SDS011;6921;53.642;9.956;2022-08-01T10:51:10;4.90;;;1.95;;
13698;SDS011;6921;53.642;9.956;2022-08-01T10:53:20;6.97;;;1.95;;
13698;SDS011;6921;53.642;9.956;2022-08-01T10:55:24;6.63;;;2.03;;
13698;SDS011;6921;53.642;9.956;2022-08-01T10:57:40;5.95;;;1.90;;
13698;SDS011;6921;53.642;9.956;2022-08-01T10:59:50;6.55;;;2.30;;
13698;SDS011;6921;53.642;9.956;2022-08-01T11:02:00;9.60;;;2.05;;
13698;SDS011;6921;53.642;9.956;2022-08-01T11:04:04;10.00;;;2.15;;
13698;SDS011;6921;53.642;9.956;2022-08-01T11:06:15;3.15;;;1.70;;
13698;SDS011;6921;53.642;9.956;2022-08-01T11:08:22;6.45;;;2.60;;
13698;SDS011;6921;53.642;9.956;2022-08-01T11:10:29;5.57;;;2.10;;
13698;SDS011;6921;53.642;9.956;2022-08-01T11:12:37;5.07;;;1.33;;
13698;SDS011;6921;53.642;9.956;2022-08-01T11:19:21;3.90;;;1.23;;
13698;SDS011;6921;53.642;9.956;2022-08-01T11:24:00;4.55;;;1.75;;
13698;SDS011;6921;53.642;9.956;2022-08-01T11:26:07;6.00;;;1.52;;
13698;SDS011;6921;53.642;9.956;2022-08-01T11:28:17;6.75;;;1.48;;
13698;SDS011;6921;53.642;9.956;2022-08-01T11:30:29;7.13;;;1.52;;
13698;SDS011;6921;53.642;9.956;2022-08-01T11:32:32;3.03;;;1.45;;
13698;SDS011;6921;53.642;9.956;2022-08-01T11:34:56;4.38;;;1.95;;
13698;SDS011;6921;53.642;9.956;2022-08-01T11:39:20;4.80;;;1.60;;
13698;SDS011;6921;53.642;9.956;2022-08-01T11:41:24;7.35;;;1.70;;
13698;SDS011;6921;53.642;9.956;2022-08-01T11:43:54;3.75;;;1.40;;
13698;SDS011;6921;53.642;9.956;2022-08-01T11:45:57;8.35;;;1.63;;
13698;SDS011;6921;53.642;9.956;2022-08-01T11:48:01;3.25;;;1.63;;
13698;SDS011;6921;53.642;9.956;2022-08-01T11:50:04;3.45;;;1.30;;
13698;SDS011;6921;53.642;9.956;2022-08-01T11:52:08;5.65;;;1.30;;
13698;SDS011;6921;53.642;9.956;2022-08-01T11:54:12;5.18;;;1.20;;
13698;SDS011;6921;53.642;9.956;2022-08-01T11:56:16;2.58;;;1.40;;
13698;SDS011;6921;53.642;9.956;2022-08-01T11:58:20;5.30;;;1.90;;
13698;SDS011;6921;53.642;9.956;2022-08-01T12:00:28;3.55;;;1.33;;
13698;SDS011;6921;53.642;9.956;2022-08-01T12:02:32;5.38;;;1.38;;
13698;SDS011;6921;53.642;9.956;2022-08-01T12:07:07;5.93;;;1.60;;
13698;SDS011;6921;53.642;9.956;2022-08-01T12:09:14;5.00;;;1.33;;
13698;SDS011;6921;53.642;9.956;2022-08-01T12:11:19;5.80;;;1.45;;
13698;SDS011;6921;53.642;9.956;2022-08-01T12:13:22;2.20;;;1.05;;
13698;SDS011;6921;53.642;9.956;2022-08-01T12:15:28;5.65;;;1.25;;
13698;SDS011;6921;53.642;9.956;2022-08-01T12:17:34;7.88;;;1.60;;
13698;SDS011;6921;53.642;9.956;2022-08-01T12:19:38;4.35;;;1.50;;
13698;SDS011;6921;53.642;9.956;2022-08-01T12:21:42;4.22;;;1.58;;
13698;SDS011;6921;53.642;9.956;2022-08-01T12:23:45;4.78;;;1.40;;
13698;SDS011;6921;53.642;9.956;2022-08-01T12:25:50;4.35;;;1.30;;
13698;SDS011;6921;53.642;9.956;2022-08-01T12:27:58;4.00;;;1.30;;
13698;SDS011;6921;53.642;9.956;2022-08-01T12:30:04;5.65;;;1.65;;
13698;SDS011;6921;53.642;9.956;2022-08-01T12:32:20;3.83;;;1.27;;
13698;SDS011;6921;53.642;9.956;2022-08-01T12:34:28;3.95;;;1.15;;
13698;SDS011;6921;53.642;9.956;2022-08-01T12:36:31;4.30;;;1.52;;
13698;SDS011;6921;53.642;9.956;2022-08-01T12:38:35;5.15;;;1.42;;
13698;SDS011;6921;53.642;9.956;2022-08-01T12:40:40;3.58;;;1.23;;
13698;SDS011;6921;53.642;9.956;2022-08-01T12:42:46;5.97;;;1.13;;
13698;SDS011;6921;53.642;9.956;2022-08-01T12:44:51;3.38;;;1.20;;
13698;SDS011;6921;53.642;9.956;2022-08-01T12:46:55;2.88;;;0.95;;
13698;SDS011;6921;53.642;9.956;2022-08-01T12:48:58;4.68;;;1.33;;
13698;SDS011;6921;53.642;9.956;2022-08-01T12:51:02;3.85;;;1.20;;
13698;SDS011;6921;53.642;9.956;2022-08-01T12:53:05;2.30;;;0.95;;
13698;SDS011;6921;53.642;9.956;2022-08-01T12:55:10;3.30;;;1.08;;